createdAt,value
2023-02-27T00:00:21.645Z,3.72
2023-02-27T00:02:50.543Z,3.75
2023-02-27T00:05:18.216Z,3.65
2023-02-27T00:07:44.848Z,3.67
2023-02-27T00:10:12.761Z,3.63
2023-02-27T00:12:40.996Z,3.90
2023-02-27T00:15:09.555Z,3.47
2023-02-27T00:17:36.070Z,3.75
2023-02-27T00:20:02.797Z,3.17
2023-02-27T00:22:29.214Z,4.30
2023-02-27T00:24:55.564Z,3.92
2023-02-27T00:27:21.945Z,3.03
2023-02-27T00:29:49.710Z,4.80
2023-02-27T00:32:16.500Z,3.60
2023-02-27T00:34:42.903Z,3.70
2023-02-27T00:37:09.271Z,3.85
2023-02-27T00:39:35.608Z,4.10
2023-02-27T00:42:02.011Z,4.22
2023-02-27T00:44:28.466Z,4.57
2023-02-27T00:46:56.183Z,4.35
2023-02-27T00:49:22.577Z,5.00
2023-02-27T00:51:48.930Z,4.25
2023-02-27T00:54:15.308Z,4.60
2023-02-27T00:56:41.704Z,4.18
2023-02-27T00:59:08.333Z,4.10
2023-02-27T01:01:34.774Z,4.15
2023-02-27T01:04:02.741Z,4.53
2023-02-27T01:06:29.205Z,4.90
2023-02-27T01:08:55.563Z,4.32
2023-02-27T01:11:22.504Z,5.75
2023-02-27T01:13:48.878Z,4.97
2023-02-27T01:16:15.320Z,4.25
2023-02-27T01:18:41.812Z,5.05
2023-02-27T01:21:09.514Z,4.43
2023-02-27T01:23:35.902Z,4.90
2023-02-27T01:26:02.313Z,5.90
2023-02-27T01:28:28.686Z,4.38
2023-02-27T01:30:55.143Z,4.60
2023-02-27T01:33:21.850Z,4.75
2023-02-27T01:35:48.243Z,4.85
2023-02-27T01:38:15.954Z,5.00
2023-02-27T01:40:42.772Z,3.92
2023-02-27T01:43:14.017Z,4.18
2023-02-27T01:45:41.520Z,4.35
2023-02-27T01:48:16.523Z,4.00
2023-02-27T01:50:49.360Z,4.32
2023-02-27T01:53:18.476Z,4.20
2023-02-27T01:55:46.646Z,4.07
2023-02-27T01:58:13.538Z,3.90
2023-02-27T02:00:40.506Z,3.80
2023-02-27T02:03:15.182Z,3.95
2023-02-27T02:05:42.603Z,3.50
2023-02-27T02:08:09.710Z,4.13
2023-02-27T02:10:38.959Z,3.63
2023-02-27T02:13:05.478Z,3.95
2023-02-27T02:15:37.170Z,3.55
2023-02-27T02:18:15.223Z,3.85
2023-02-27T02:21:16.084Z,3.85
2023-02-27T02:24:21.136Z,4.28
2023-02-27T02:26:58.427Z,4.20
2023-02-27T02:30:01.801Z,4.55
2023-02-27T02:33:10.135Z,4.20
2023-02-27T02:35:56.899Z,4.88
2023-02-27T02:38:46.262Z,3.85
2023-02-27T02:41:18.015Z,4.07
2023-02-27T02:43:54.182Z,3.72
2023-02-27T02:46:30.516Z,4.80
2023-02-27T02:49:03.057Z,4.28
2023-02-27T02:51:36.554Z,4.57
2023-02-27T02:54:11.096Z,5.50
2023-02-27T02:56:43.977Z,4.85
2023-02-27T02:59:16.065Z,4.57
2023-02-27T03:01:45.969Z,4.40
2023-02-27T03:04:18.228Z,4.30
2023-02-27T03:06:49.935Z,5.20
2023-02-27T03:09:23.802Z,4.38
2023-02-27T03:14:28.851Z,4.50
2023-02-27T03:17:00.701Z,4.35
2023-02-27T03:19:29.487Z,5.25
2023-02-27T03:22:00.458Z,4.85
2023-02-27T03:24:32.356Z,4.40
2023-02-27T03:27:00.821Z,4.45
2023-02-27T03:29:35.275Z,3.97
2023-02-27T03:32:08.347Z,4.45
2023-02-27T03:34:38.437Z,3.47
2023-02-27T03:37:10.022Z,4.45
2023-02-27T03:39:45.303Z,4.78
2023-02-27T03:42:19.513Z,4.57
2023-02-27T03:44:55.730Z,5.13
2023-02-27T03:47:22.234Z,4.35
2023-02-27T03:49:48.923Z,3.90
2023-02-27T03:52:15.323Z,4.40
2023-02-27T03:54:50.150Z,4.78
2023-02-27T03:57:16.575Z,4.97
2023-02-27T03:59:43.399Z,5.40
2023-02-27T04:02:09.917Z,5.40
2023-02-27T04:04:36.390Z,5.13
2023-02-27T04:07:08.961Z,5.32
2023-02-27T04:09:57.458Z,5.15
2023-02-27T04:12:43.824Z,4.80
2023-02-27T04:15:24.671Z,4.63
2023-02-27T04:18:01.975Z,4.97
2023-02-27T04:20:39.513Z,4.40
2023-02-27T04:23:12.967Z,5.00
2023-02-27T04:25:54.312Z,4.82
2023-02-27T04:28:27.509Z,5.15
2023-02-27T04:31:01.022Z,4.65
2023-02-27T04:33:37.482Z,5.22
2023-02-27T04:36:12.682Z,4.38
2023-02-27T04:38:43.405Z,4.32
2023-02-27T04:41:16.516Z,4.70
2023-02-27T04:43:45.538Z,5.30
2023-02-27T04:46:15.500Z,4.55
2023-02-27T04:48:50.999Z,6.00
2023-02-27T04:51:22.534Z,5.32
2023-02-27T04:53:54.552Z,4.60
2023-02-27T04:56:29.627Z,4.78
2023-02-27T04:58:59.502Z,4.95
2023-02-27T05:01:34.338Z,4.72
2023-02-27T05:04:02.860Z,4.68
2023-02-27T05:06:32.663Z,4.55
2023-02-27T05:09:05.706Z,4.25
2023-02-27T05:11:40.892Z,4.97
2023-02-27T05:14:13.813Z,4.70
2023-02-27T05:16:46.617Z,5.37
2023-02-27T05:19:13.358Z,4.90
2023-02-27T05:21:46.351Z,4.97
2023-02-27T05:24:22.149Z,5.20
2023-02-27T05:27:16.365Z,5.28
2023-02-27T05:29:47.830Z,4.80
2023-02-27T05:32:22.452Z,4.55
2023-02-27T05:34:53.677Z,4.00
2023-02-27T05:37:25.400Z,4.47
2023-02-27T05:39:52.542Z,4.60
2023-02-27T05:42:24.576Z,4.68
2023-02-27T05:44:56.784Z,5.15
2023-02-27T05:47:28.099Z,4.82
2023-02-27T05:49:59.670Z,4.90
2023-02-27T05:52:27.553Z,5.38
2023-02-27T05:55:00.108Z,4.63
2023-02-27T05:57:33.959Z,5.65
2023-02-27T06:02:29.628Z,5.03
2023-02-27T06:04:56.291Z,5.22
2023-02-27T06:07:23.208Z,5.40
2023-02-27T06:09:50.339Z,6.65
2023-02-27T06:12:16.724Z,5.38
2023-02-27T06:14:44.735Z,5.43
2023-02-27T06:17:11.074Z,6.43
2023-02-27T06:19:37.521Z,5.60
2023-02-27T06:22:03.902Z,5.47
2023-02-27T06:24:30.335Z,5.80
2023-02-27T06:26:56.763Z,5.82
2023-02-27T06:29:23.365Z,6.15
2023-02-27T06:31:51.130Z,6.28
2023-02-27T06:34:17.530Z,5.93
2023-02-27T06:36:44.004Z,6.38
2023-02-27T06:39:10.423Z,5.78
2023-02-27T06:41:36.975Z,6.10
2023-02-27T06:44:03.689Z,5.75
2023-02-27T06:46:30.478Z,6.15
2023-02-27T06:48:58.428Z,6.35
2023-02-27T06:51:24.973Z,5.75
2023-02-27T06:53:51.345Z,6.93
2023-02-27T06:56:17.841Z,6.28
2023-02-27T06:58:44.413Z,6.43
2023-02-27T07:01:10.790Z,6.32
2023-02-27T07:03:37.219Z,6.38
2023-02-27T07:06:05.512Z,6.97
2023-02-27T07:08:31.886Z,6.38
2023-02-27T07:10:58.250Z,6.57
2023-02-27T07:13:24.716Z,7.00
2023-02-27T07:15:51.125Z,6.78
2023-02-27T07:18:17.715Z,7.57
2023-02-27T07:20:44.132Z,6.95
2023-02-27T07:23:11.791Z,7.35
2023-02-27T07:25:38.137Z,8.13
2023-02-27T07:28:04.678Z,9.00
2023-02-27T07:30:31.074Z,8.32
2023-02-27T07:32:57.463Z,9.30
2023-02-27T07:35:24.043Z,8.45
2023-02-27T07:37:50.416Z,8.43
2023-02-27T07:40:18.397Z,8.85
2023-02-27T07:42:46.975Z,9.70
2023-02-27T07:45:13.625Z,9.27
2023-02-27T07:47:40.018Z,8.82
2023-02-27T07:50:07.172Z,8.38
2023-02-27T07:52:33.572Z,6.97
2023-02-27T07:54:59.922Z,9.15
2023-02-27T07:57:27.633Z,8.00
2023-02-27T07:59:54.083Z,7.82
2023-02-27T08:02:20.450Z,7.75
2023-02-27T08:04:46.886Z,7.80
2023-02-27T08:07:13.312Z,7.32
2023-02-27T08:09:39.680Z,6.78
2023-02-27T08:12:06.179Z,7.10
2023-02-27T08:14:34.027Z,6.63
2023-02-27T08:17:00.464Z,7.00
2023-02-27T08:19:27.334Z,6.47
2023-02-27T08:21:53.703Z,6.28
2023-02-27T08:24:20.059Z,6.72
2023-02-27T08:26:46.617Z,6.53
2023-02-27T08:29:14.117Z,6.32
2023-02-27T08:31:42.878Z,6.53
2023-02-27T08:34:10.726Z,6.30
2023-02-27T08:36:38.033Z,8.23
2023-02-27T08:39:04.503Z,5.78
2023-02-27T08:41:30.885Z,6.43
2023-02-27T08:43:57.240Z,6.20
2023-02-27T08:46:23.732Z,6.28
2023-02-27T08:48:51.559Z,6.32
2023-02-27T08:51:17.967Z,7.68
2023-02-27T08:53:44.357Z,5.85
2023-02-27T08:56:10.769Z,6.30
2023-02-27T08:58:37.186Z,5.63
2023-02-27T09:01:03.768Z,6.03
2023-02-27T09:03:30.323Z,5.88
2023-02-27T09:05:58.468Z,5.97
2023-02-27T09:08:24.892Z,6.30
2023-02-27T09:10:51.299Z,6.88
2023-02-27T09:13:17.654Z,6.28
2023-02-27T09:15:47.082Z,6.72
2023-02-27T09:18:13.477Z,5.10
2023-02-27T09:20:39.835Z,6.43
2023-02-27T09:23:07.631Z,6.05
2023-02-27T09:25:34.007Z,6.53
2023-02-27T09:28:00.378Z,5.93
2023-02-27T09:30:31.536Z,5.85
2023-02-27T09:32:58.132Z,5.05
2023-02-27T09:35:24.612Z,6.22
2023-02-27T09:37:51.159Z,6.88
2023-02-27T09:40:24.363Z,5.95
2023-02-27T09:42:53.767Z,5.63
2023-02-27T09:45:23.396Z,5.60
2023-02-27T09:47:53.103Z,5.13
2023-02-27T09:50:33.972Z,5.10
2023-02-27T09:53:00.603Z,4.90
2023-02-27T09:55:32.019Z,5.60
2023-02-27T09:58:04.405Z,4.68
2023-02-27T10:00:45.211Z,5.07
2023-02-27T10:03:24.273Z,5.63
2023-02-27T10:06:00.214Z,5.97
2023-02-27T10:08:35.533Z,5.30
2023-02-27T10:11:07.108Z,6.22
2023-02-27T10:13:47.103Z,4.97
2023-02-27T10:16:17.531Z,5.80
2023-02-27T10:18:53.937Z,5.32
2023-02-27T10:21:25.250Z,5.32
2023-02-27T10:23:58.065Z,4.35
2023-02-27T10:26:29.917Z,4.10
2023-02-27T10:28:57.011Z,4.40
2023-02-27T10:31:28.741Z,4.10
2023-02-27T10:33:57.273Z,4.22
2023-02-27T10:36:33.695Z,3.92
2023-02-27T10:39:04.979Z,4.00
2023-02-27T10:41:32.953Z,3.83
2023-02-27T10:44:00.566Z,4.53
2023-02-27T10:46:29.670Z,4.20
2023-02-27T10:48:59.338Z,3.72
2023-02-27T10:51:27.951Z,4.25
2023-02-27T10:54:14.133Z,3.42
2023-02-27T10:56:45.345Z,3.92
2023-02-27T10:59:19.362Z,2.65
2023-02-27T11:01:49.534Z,3.08
2023-02-27T11:04:25.772Z,3.38
2023-02-27T11:06:53.546Z,2.92
2023-02-27T11:09:21.890Z,3.03
2023-02-27T11:11:50.461Z,2.63
2023-02-27T11:14:29.417Z,2.72
2023-02-27T11:16:57.870Z,2.53
2023-02-27T11:19:29.503Z,2.53
2023-02-27T11:22:04.756Z,2.65
2023-02-27T11:24:31.704Z,2.80
2023-02-27T11:27:01.037Z,2.42
2023-02-27T11:29:27.418Z,3.13
2023-02-27T11:31:56.034Z,2.35
2023-02-27T11:34:26.742Z,2.17
2023-02-27T11:36:55.581Z,2.65
2023-02-27T11:39:26.194Z,2.83
2023-02-27T11:41:53.828Z,2.88
2023-02-27T11:44:43.270Z,2.30
2023-02-27T11:47:16.572Z,2.30
2023-02-27T11:50:04.810Z,2.60
2023-02-27T11:52:41.123Z,3.08
2023-02-27T11:55:14.346Z,2.67
2023-02-27T11:57:44.195Z,2.03
2023-02-27T12:00:19.538Z,2.30
2023-02-27T12:02:51.146Z,2.10
2023-02-27T12:05:20.664Z,2.30
2023-02-27T12:07:54.340Z,2.40
2023-02-27T12:12:52.931Z,1.88
2023-02-27T12:15:31.039Z,1.92
2023-02-27T12:18:06.415Z,2.20
2023-02-27T12:20:38.504Z,2.72
2023-02-27T12:23:16.373Z,2.22
2023-02-27T12:25:47.744Z,2.20
2023-02-27T12:28:26.494Z,1.77
2023-02-27T12:31:05.686Z,2.95
2023-02-27T12:33:38.920Z,2.45
2023-02-27T12:36:10.906Z,2.97
2023-02-27T12:38:37.918Z,2.15
2023-02-27T12:41:23.759Z,2.25
2023-02-27T12:44:00.116Z,2.72
2023-02-27T12:46:38.256Z,1.95
2023-02-27T12:49:16.926Z,2.22
2023-02-27T12:51:50.960Z,1.70
2023-02-27T12:54:26.627Z,2.22
2023-02-27T12:57:02.573Z,2.72
2023-02-27T12:59:43.591Z,2.00
2023-02-27T13:02:30.076Z,2.10
2023-02-27T13:05:07.264Z,2.10
2023-02-27T13:07:37.471Z,1.70
2023-02-27T13:10:14.389Z,1.92
2023-02-27T13:12:46.508Z,1.85
2023-02-27T13:15:19.547Z,2.13
2023-02-27T13:17:49.504Z,1.90
2023-02-27T13:20:29.509Z,2.08
2023-02-27T13:23:03.008Z,1.88
2023-02-27T13:25:31.538Z,1.70
2023-02-27T13:28:00.789Z,1.95
2023-02-27T13:30:33.993Z,2.28
2023-02-27T13:33:15.334Z,5.00
2023-02-27T13:35:49.000Z,2.58
2023-02-27T13:38:34.123Z,4.10
2023-02-27T13:41:36.225Z,3.88
2023-02-27T13:44:47.388Z,2.72
2023-02-27T13:47:50.271Z,3.60
2023-02-27T13:50:49.099Z,3.00
2023-02-27T13:53:19.027Z,1.88
2023-02-27T13:55:46.054Z,2.55
2023-02-27T13:58:20.039Z,1.52
2023-02-27T14:00:59.641Z,1.48
2023-02-27T14:03:28.403Z,1.65
2023-02-27T14:05:58.141Z,1.50
2023-02-27T14:08:26.923Z,2.42
2023-02-27T14:10:57.898Z,2.20
2023-02-27T14:13:58.007Z,1.70
2023-02-27T14:16:59.385Z,2.70
2023-02-27T14:19:46.505Z,2.33
2023-02-27T14:22:40.794Z,1.95
2023-02-27T14:25:18.461Z,2.13
2023-02-27T14:27:50.586Z,1.52
2023-02-27T14:30:27.053Z,1.10
2023-02-27T14:32:56.904Z,1.15
2023-02-27T14:35:23.943Z,1.42
2023-02-27T14:37:52.441Z,1.48
2023-02-27T14:40:29.765Z,1.20
2023-02-27T14:43:05.244Z,1.75
2023-02-27T14:45:31.904Z,1.20
2023-02-27T14:47:58.621Z,1.88
2023-02-27T14:50:28.662Z,1.30
2023-02-27T14:52:57.997Z,1.40
2023-02-27T14:55:26.915Z,1.23
2023-02-27T14:57:58.292Z,1.30
2023-02-27T15:00:34.110Z,1.30
2023-02-27T15:03:10.884Z,1.58
2023-02-27T15:05:38.608Z,1.35
2023-02-27T15:08:13.120Z,1.83
2023-02-27T15:10:42.642Z,1.95
2023-02-27T15:13:22.724Z,1.85
2023-02-27T15:15:49.195Z,2.30
2023-02-27T15:18:15.571Z,2.72
2023-02-27T15:20:42.133Z,1.75
2023-02-27T15:23:25.593Z,2.15
2023-02-27T15:25:55.343Z,1.50
2023-02-27T15:28:23.897Z,1.88
2023-02-27T15:30:51.917Z,1.80
2023-02-27T15:33:28.279Z,1.90
2023-02-27T15:35:55.644Z,1.30
2023-02-27T15:38:28.401Z,1.55
2023-02-27T15:40:57.142Z,1.08
2023-02-27T15:43:26.166Z,1.90
2023-02-27T15:45:53.282Z,2.28
2023-02-27T15:48:20.581Z,1.38
2023-02-27T15:50:48.933Z,1.50
2023-02-27T15:53:19.073Z,1.33
2023-02-27T15:55:50.974Z,1.30
2023-02-27T15:58:22.404Z,1.55
2023-02-27T16:00:50.441Z,1.48
2023-02-27T16:03:23.067Z,1.58
2023-02-27T16:05:52.216Z,1.63
2023-02-27T16:08:19.930Z,1.20
2023-02-27T16:10:48.241Z,1.42
2023-02-27T16:13:32.429Z,1.45
2023-02-27T16:16:00.728Z,1.23
2023-02-27T16:18:31.742Z,1.25
2023-02-27T16:21:09.151Z,1.33
2023-02-27T16:23:35.582Z,1.30
2023-02-27T16:26:13.855Z,1.80
2023-02-27T16:28:44.901Z,1.42
2023-02-27T16:31:23.527Z,1.35
2023-02-27T16:33:51.357Z,1.65
2023-02-27T16:36:20.018Z,1.52
2023-02-27T16:38:46.911Z,1.65
2023-02-27T16:41:16.055Z,1.58
2023-02-27T16:43:43.136Z,1.55
2023-02-27T16:46:09.910Z,1.35
2023-02-27T16:48:36.778Z,2.00
2023-02-27T16:51:04.064Z,2.25
2023-02-27T16:53:31.598Z,2.00
2023-02-27T16:55:57.980Z,1.80
2023-02-27T16:58:25.690Z,2.38
2023-02-27T17:00:52.086Z,1.40
2023-02-27T17:03:18.556Z,1.98
2023-02-27T17:05:44.964Z,1.73
2023-02-27T17:08:11.381Z,2.05
2023-02-27T17:10:37.821Z,1.95
2023-02-27T17:13:04.170Z,2.35
2023-02-27T17:15:31.856Z,1.95
2023-02-27T17:17:58.198Z,1.92
2023-02-27T17:20:24.556Z,2.13
2023-02-27T17:22:50.921Z,2.75
2023-02-27T17:25:17.320Z,2.28
2023-02-27T17:27:44.167Z,6.43
2023-02-27T17:30:13.094Z,6.10
2023-02-27T17:32:40.899Z,10.38
2023-02-27T17:35:07.997Z,8.98
2023-02-27T17:37:34.454Z,7.25
2023-02-27T17:40:00.931Z,9.13
2023-02-27T17:42:27.335Z,4.85
2023-02-27T17:44:53.708Z,7.18
2023-02-27T17:47:20.077Z,8.20
2023-02-27T17:49:48.257Z,4.15
2023-02-27T17:52:15.039Z,4.20
2023-02-27T17:54:41.440Z,3.60
2023-02-27T17:57:07.828Z,3.85
2023-02-27T17:59:34.224Z,2.55
2023-02-27T18:02:00.597Z,2.63
2023-02-27T18:04:27.262Z,2.75
2023-02-27T18:06:55.256Z,1.85
2023-02-27T18:09:24.351Z,2.25
2023-02-27T18:11:50.896Z,1.92
2023-02-27T18:14:17.400Z,2.08
2023-02-27T18:16:43.791Z,2.10
2023-02-27T18:19:10.215Z,1.70
2023-02-27T18:21:36.807Z,2.13
2023-02-27T18:24:04.902Z,3.55
2023-02-27T18:26:33.102Z,2.83
2023-02-27T18:29:01.636Z,2.28
2023-02-27T18:31:30.768Z,2.72
2023-02-27T18:33:57.231Z,2.78
2023-02-27T18:36:23.783Z,1.83
2023-02-27T18:38:50.171Z,2.55
2023-02-27T18:41:17.941Z,2.20
2023-02-27T18:43:44.545Z,2.67
2023-02-27T18:46:12.386Z,2.00
2023-02-27T18:48:39.189Z,1.80
2023-02-27T18:51:07.609Z,2.40
2023-02-27T18:53:35.086Z,1.88
2023-02-27T18:56:02.245Z,2.22
2023-02-27T18:58:30.283Z,2.28
2023-02-27T19:00:56.803Z,3.08
2023-02-27T19:03:23.336Z,3.05
2023-02-27T19:05:49.905Z,2.05
2023-02-27T19:08:16.306Z,2.53
2023-02-27T19:10:43.146Z,3.30
2023-02-27T19:13:09.970Z,2.40
2023-02-27T19:15:38.564Z,2.55
2023-02-27T19:18:05.621Z,2.50
2023-02-27T19:20:32.419Z,2.35
2023-02-27T19:22:58.886Z,2.45
2023-02-27T19:25:25.463Z,2.20
2023-02-27T19:27:53.346Z,2.05
2023-02-27T19:30:20.528Z,2.38
2023-02-27T19:32:48.330Z,2.15
2023-02-27T19:35:14.812Z,3.05
2023-02-27T19:37:41.498Z,1.95
2023-02-27T19:40:09.776Z,2.85
2023-02-27T19:42:36.269Z,2.40
2023-02-27T19:45:02.806Z,3.08
2023-02-27T19:47:29.236Z,3.17
2023-02-27T19:49:56.943Z,2.40
2023-02-27T19:52:23.309Z,2.53
2023-02-27T19:54:49.708Z,3.58
2023-02-27T19:57:16.302Z,3.42
2023-02-27T19:59:42.706Z,3.88
2023-02-27T20:02:10.299Z,3.90
2023-02-27T20:04:36.718Z,5.28
2023-02-27T20:07:04.418Z,5.35
2023-02-27T20:09:31.920Z,3.80
2023-02-27T20:11:58.526Z,3.25
2023-02-27T20:14:25.989Z,3.00
2023-02-27T20:16:52.381Z,3.03
2023-02-27T20:19:19.550Z,2.92
2023-02-27T20:21:46.708Z,3.30
2023-02-27T20:24:15.032Z,2.65
2023-02-27T20:26:43.721Z,2.90
2023-02-27T20:29:11.519Z,2.95
2023-02-27T20:31:39.533Z,3.05
2023-02-27T20:34:06.904Z,2.92
2023-02-27T20:36:34.393Z,2.70
2023-02-27T20:39:00.797Z,2.50
2023-02-27T20:41:29.890Z,4.30
2023-02-27T20:43:56.551Z,3.20
2023-02-27T20:46:24.962Z,3.55
2023-02-27T20:48:51.387Z,3.22
2023-02-27T20:51:20.240Z,4.57
2023-02-27T20:53:48.536Z,4.55
2023-02-27T20:56:17.931Z,4.10
2023-02-27T20:58:45.751Z,3.95
2023-02-27T21:01:13.931Z,3.95
2023-02-27T21:03:42.474Z,3.80
2023-02-27T21:06:12.014Z,3.83
2023-02-27T21:08:40.052Z,3.75
2023-02-27T21:11:07.934Z,4.75
2023-02-27T21:13:34.342Z,4.60
2023-02-27T21:16:02.259Z,4.60
2023-02-27T21:18:28.790Z,5.85
2023-02-27T21:20:55.136Z,5.90
2023-02-27T21:23:21.559Z,5.60
2023-02-27T21:25:47.940Z,6.68
2023-02-27T21:28:14.362Z,5.85
2023-02-27T21:30:40.779Z,11.10
2023-02-27T21:33:08.485Z,9.73
2023-02-27T21:35:34.946Z,8.65
2023-02-27T21:38:01.390Z,8.27
2023-02-27T21:40:27.991Z,8.80
2023-02-27T21:42:54.371Z,7.80
2023-02-27T21:45:21.369Z,12.02
2023-02-27T21:47:47.750Z,10.50
2023-02-27T21:50:15.958Z,11.23
2023-02-27T21:52:43.202Z,9.65
2023-02-27T21:55:12.736Z,8.98
2023-02-27T21:57:40.078Z,11.38
2023-02-27T22:00:10.668Z,9.65
2023-02-27T22:02:37.751Z,12.25
2023-02-27T22:05:04.734Z,12.48
2023-02-27T22:07:32.478Z,7.45
2023-02-27T22:09:59.173Z,7.25
2023-02-27T22:12:25.641Z,7.20
2023-02-27T22:14:52.004Z,6.25
2023-02-27T22:17:18.542Z,7.53
2023-02-27T22:19:45.140Z,7.05
2023-02-27T22:22:11.489Z,5.90
2023-02-27T22:24:39.371Z,5.05
2023-02-27T22:27:05.749Z,6.25
2023-02-27T22:29:32.148Z,6.90
2023-02-27T22:31:58.553Z,7.45
2023-02-27T22:34:24.967Z,6.63
2023-02-27T22:36:51.357Z,6.38
2023-02-27T22:39:18.410Z,5.90
2023-02-27T22:41:46.155Z,5.97
2023-02-27T22:44:15.498Z,5.85
2023-02-27T22:46:44.028Z,6.05
2023-02-27T22:49:13.505Z,4.63
2023-02-27T22:51:39.985Z,4.85
2023-02-27T22:54:07.874Z,4.72
2023-02-27T22:56:34.607Z,5.75
2023-02-27T22:59:02.698Z,5.10
2023-02-27T23:01:31.066Z,5.28
2023-02-27T23:03:59.559Z,5.07
2023-02-27T23:06:28.366Z,5.85
2023-02-27T23:08:54.850Z,4.97
2023-02-27T23:11:21.505Z,5.15
2023-02-27T23:13:48.127Z,5.25
2023-02-27T23:16:15.978Z,4.95
2023-02-27T23:18:44.444Z,6.18
2023-02-27T23:21:10.841Z,5.25
2023-02-27T23:23:37.245Z,5.95
2023-02-27T23:26:05.125Z,5.90
2023-02-27T23:28:32.644Z,5.32
2023-02-27T23:30:59.488Z,5.72
2023-02-27T23:33:28.451Z,6.30
2023-02-27T23:35:55.291Z,5.65
2023-02-27T23:38:21.681Z,5.90
2023-02-27T23:40:48.090Z,6.18
2023-02-27T23:43:14.943Z,5.03
2023-02-27T23:45:41.926Z,5.80
2023-02-27T23:48:08.828Z,5.70
2023-02-27T23:50:38.511Z,5.53
2023-02-27T23:53:05.604Z,5.53
2023-02-27T23:55:34.233Z,5.80
2023-02-27T23:58:01.998Z,5.85
